Trenton, NJ

09:25 PM EDT em 30 de Setembro de 2016 (GMT -0400)
Morris Heights | | Change Station

Elev 89 ft 40.22 °N, 74.78 °W | Updated 11 seconds ago

Chuva
Chuva
58.9 °F
Aparente 58.9 °F
N
0.0
Vento Variável Vento de NE
Gusts 4.4 mph

Hoje
Máxima -- | Mínima -- °F
--% Possibilidade de Precip.
Ontem
Máxima -- | Mínima -- °F
Precip. -- pol
Pressão 30.22 pol
Visibilidade 3.0 milhas
Nuvens Céu Encoberto 500 ft
Ponto de Orvalho 56 °F
Humidade 90%
Chuva 0.29 pol
Altura de Neve Não disponível
6:54 AM 6:42 PM
Lua nova, 0% visible
METAR KTTN 010053Z 04010KT 3SM BR OVC005 14/13 A3023 RMK AO2 RAB18E27 CIG 003V009 SLP232 P0000 T01440133
Pressão 30.22 pol
Visibilidade 3.0 milhas
Nuvens Céu Encoberto 500 ft
Ponto de Orvalho 56 °F
Humidade 90%
Chuva 0.29 pol
Altura de Neve Não disponível
6:54 AM 6:42 PM
Lua nova, 0% visible
METAR KTTN 010053Z 04010KT 3SM BR OVC005 14/13 A3023 RMK AO2 RAB18E27 CIG 003V009 SLP232 P0000 T01440133

10-Day Weather Forecast

Almanac

Astronomia

Sep. 30, 2016 Nascer Pôr
Hora atual
Crepúsculo civil
Crepúsculo náutico
Crepúsculo astronómico
Lua
Comprimento da luz visível
Duração do Dia
Tomorrow will be .
, % of the Moon is Illuminated

Extremos de Hoje

situação na parte mais alta situação na parte mais baixa

Community

WunderPhotos

Upload Photos

1,942,829 fotografias inseridas!

WunderBlog® & News

Nearby

Qualidade do Ar

  Qualidade do Ar Índice da Q.A. Poluente
Not available.

Altura da Neve

Estação altura Altitude

Actividade Sísmisca

Cidade Distância Mag. Hora & Data
Mínima magnitude apresentada é 2.5.

Temperaturas das Águas Costeiras

Local Temperatura

Stations

Estações Meteorológicas Próximas

Localização da Estação Temp. Sensação Térmica Ponto de Orvalho Humidade Vento Precip. Elev Actualizado Tipo
                   

Watches & Warnings

There are currently no watches in effect.